createdAt,value
2022-10-28T00:01:02.895Z,11.7
2022-10-28T00:02:07.620Z,11.6
2022-10-28T00:03:12.494Z,11.4
2022-10-28T00:04:16.829Z,11.4
2022-10-28T00:05:21.534Z,11.5
2022-10-28T00:06:26.049Z,11.5
2022-10-28T00:07:30.478Z,11.5
2022-10-28T00:08:34.978Z,11.4
2022-10-28T00:09:39.161Z,11.4
2022-10-28T00:10:44.229Z,11.5
2022-10-28T00:11:49.217Z,11.3
2022-10-28T00:12:53.399Z,11.4
2022-10-28T00:13:57.482Z,11.3
2022-10-28T00:15:01.978Z,11.3
2022-10-28T00:16:06.641Z,11.4
2022-10-28T00:17:11.342Z,11.3
2022-10-28T00:18:16.065Z,11.4
2022-10-28T00:19:20.616Z,11.3
2022-10-28T00:20:24.997Z,11.3
2022-10-28T00:21:29.254Z,11.4
2022-10-28T00:22:34.049Z,11.3
2022-10-28T00:23:38.633Z,11.3
2022-10-28T00:24:43.289Z,11.3
2022-10-28T00:25:47.557Z,11.2
2022-10-28T00:26:52.649Z,11.3
2022-10-28T00:27:56.791Z,11.2
2022-10-28T00:29:01.502Z,11.3
2022-10-28T00:30:08.969Z,11.2
2022-10-28T00:31:13.538Z,11.3
2022-10-28T00:32:17.713Z,11.2
2022-10-28T00:33:22.529Z,11.2
2022-10-28T00:34:27.106Z,11.1
2022-10-28T00:35:32.002Z,11.1
2022-10-28T00:36:36.641Z,11.1
2022-10-28T00:37:40.766Z,11.2
2022-10-28T00:38:45.866Z,11.3
2022-10-28T00:39:50.577Z,11.2
2022-10-28T00:40:55.541Z,11.3
2022-10-28T00:42:00.221Z,11.2
2022-10-28T00:43:04.802Z,11.3
2022-10-28T00:44:09.538Z,11.2
2022-10-28T00:45:24.501Z,11.3
2022-10-28T00:46:28.785Z,11.3
2022-10-28T00:47:38.907Z,11.4
2022-10-28T00:48:46.329Z,11.2
2022-10-28T00:49:50.818Z,11.2
2022-10-28T00:50:55.293Z,11.3
2022-10-28T00:52:00.360Z,11.2
2022-10-28T00:53:05.056Z,11.2
2022-10-28T00:54:15.038Z,11.3
2022-10-28T00:55:19.269Z,11.3
2022-10-28T00:56:23.869Z,11.2
2022-10-28T00:57:28.786Z,11.3
2022-10-28T00:58:33.197Z,11.3
2022-10-28T00:59:37.757Z,11.2
2022-10-28T01:00:42.435Z,11.1
2022-10-28T01:01:47.107Z,11.3
2022-10-28T01:02:51.526Z,11.3
2022-10-28T01:03:55.992Z,11.2
2022-10-28T01:05:00.573Z,11.2
2022-10-28T01:06:05.417Z,11.3
2022-10-28T01:07:10.517Z,11.3
2022-10-28T01:08:15.078Z,11.2
2022-10-28T01:09:19.674Z,11.1
2022-10-28T01:10:23.775Z,11.2
2022-10-28T01:11:36.332Z,11.2
2022-10-28T01:12:48.926Z,11.2
2022-10-28T01:13:58.425Z,11.1
2022-10-28T01:15:13.098Z,11.3
2022-10-28T01:16:23.005Z,11.1
2022-10-28T01:17:37.550Z,11.1
2022-10-28T01:18:52.880Z,11.1
2022-10-28T01:20:02.517Z,11.1
2022-10-28T01:21:17.316Z,11.1
2022-10-28T01:22:32.262Z,11.2
2022-10-28T01:23:41.741Z,11.1
2022-10-28T01:24:54.606Z,11.2
2022-10-28T01:26:09.117Z,11.2
2022-10-28T01:27:16.373Z,11.3
2022-10-28T01:28:31.309Z,11.2
2022-10-28T01:29:35.929Z,11.2
2022-10-28T01:30:50.675Z,11.3
2022-10-28T01:32:05.425Z,11.2
2022-10-28T01:33:15.357Z,11.3
2022-10-28T01:34:19.557Z,11.3
2022-10-28T01:35:32.490Z,11.3
2022-10-28T01:36:45.317Z,11.3
2022-10-28T01:37:49.590Z,11.3
2022-10-28T01:38:56.815Z,11.2
2022-10-28T01:40:11.696Z,11.2
2022-10-28T01:41:21.684Z,11.2
2022-10-28T01:42:31.123Z,11.1
2022-10-28T01:43:35.568Z,11.1
2022-10-28T01:44:42.732Z,11.1
2022-10-28T01:45:53.104Z,11
2022-10-28T01:47:07.749Z,11
2022-10-28T01:48:17.520Z,11.1
2022-10-28T01:49:22.076Z,11.1
2022-10-28T01:50:26.897Z,11.1
2022-10-28T01:51:41.824Z,11
2022-10-28T01:52:46.460Z,11
2022-10-28T01:53:50.928Z,11.1
2022-10-28T01:54:55.637Z,11.2
2022-10-28T01:56:02.783Z,11
2022-10-28T01:57:07.364Z,11
2022-10-28T01:58:12.076Z,11.1
2022-10-28T01:59:16.840Z,11.1
2022-10-28T02:00:21.091Z,11.1
2022-10-28T02:01:25.520Z,11.1
2022-10-28T02:02:29.884Z,11.1
2022-10-28T02:03:34.390Z,11
2022-10-28T02:04:39.137Z,11
2022-10-28T02:05:43.490Z,11.1
2022-10-28T02:06:47.638Z,11
2022-10-28T02:07:52.351Z,11
2022-10-28T02:08:57.262Z,11
2022-10-28T02:10:04.976Z,11
2022-10-28T02:11:12.428Z,11
2022-10-28T02:12:21.628Z,11.1
2022-10-28T02:13:30.917Z,11.2
2022-10-28T02:14:35.472Z,11.2
2022-10-28T02:15:40.619Z,11.2
2022-10-28T02:16:47.979Z,11.1
2022-10-28T02:17:52.655Z,11.1
2022-10-28T02:19:01.962Z,11.2
2022-10-28T02:20:11.628Z,11.1
2022-10-28T02:21:26.560Z,11
2022-10-28T02:22:36.288Z,11
2022-10-28T02:23:45.756Z,11.1
2022-10-28T02:24:56.027Z,10.9
2022-10-28T02:26:06.785Z,11
2022-10-28T02:27:19.127Z,10.8
2022-10-28T02:28:33.832Z,10.8
2022-10-28T02:29:43.524Z,10.8
2022-10-28T02:30:48.060Z,10.8
2022-10-28T02:31:52.660Z,10.9
2022-10-28T02:32:57.557Z,11
2022-10-28T02:34:02.146Z,10.9
2022-10-28T02:35:06.493Z,11.1
2022-10-28T02:36:16.034Z,11.1
2022-10-28T02:37:20.677Z,11
2022-10-28T02:38:25.403Z,11
2022-10-28T02:39:32.604Z,10.9
2022-10-28T02:40:37.221Z,10.9
2022-10-28T02:41:41.708Z,11
2022-10-28T02:42:54.039Z,11
2022-10-28T02:43:58.320Z,10.9
2022-10-28T02:45:03.447Z,10.9
2022-10-28T02:46:13.056Z,10.8
2022-10-28T02:47:17.252Z,10.8
2022-10-28T02:48:21.912Z,11
2022-10-28T02:49:26.752Z,11.1
2022-10-28T02:50:31.695Z,10.9
2022-10-28T02:51:36.184Z,10.9
2022-10-28T02:52:46.128Z,10.9
2022-10-28T02:53:50.634Z,10.8
2022-10-28T02:55:00.306Z,10.9
2022-10-28T02:56:04.743Z,10.9
2022-10-28T02:57:09.323Z,10.8
2022-10-28T02:58:17.197Z,10.9
2022-10-28T02:59:21.680Z,10.8
2022-10-28T03:00:26.336Z,10.9
2022-10-28T03:01:30.853Z,10.8
2022-10-28T03:02:35.428Z,10.9
2022-10-28T03:03:39.942Z,10.9
2022-10-28T03:04:44.699Z,10.8
2022-10-28T03:05:49.238Z,10.8
2022-10-28T03:06:53.768Z,10.7
2022-10-28T03:07:58.199Z,10.8
2022-10-28T03:09:02.606Z,10.8
2022-10-28T03:10:07.183Z,10.8
2022-10-28T03:11:11.689Z,10.9
2022-10-28T03:12:16.517Z,10.9
2022-10-28T03:13:20.848Z,10.8
2022-10-28T03:14:25.448Z,10.9
2022-10-28T03:15:30.459Z,10.9
2022-10-28T03:16:35.151Z,10.9
2022-10-28T03:17:39.813Z,10.7
2022-10-28T03:18:44.298Z,10.9
2022-10-28T03:19:49.097Z,10.8
2022-10-28T03:20:55.307Z,11
2022-10-28T03:21:58.170Z,11.1
2022-10-28T03:23:02.561Z,11.1
2022-10-28T03:24:07.358Z,11.1
2022-10-28T03:25:11.708Z,11
2022-10-28T03:26:16.012Z,10.8
2022-10-28T03:27:20.618Z,10.8
2022-10-28T03:28:25.433Z,10.8
2022-10-28T03:29:29.800Z,10.8
2022-10-28T03:30:34.324Z,10.7
2022-10-28T03:31:38.871Z,10.8
2022-10-28T03:32:44.092Z,10.7
2022-10-28T03:33:48.560Z,10.7
2022-10-28T03:34:53.155Z,10.7
2022-10-28T03:35:57.716Z,10.7
2022-10-28T03:37:02.410Z,10.8
2022-10-28T03:38:07.200Z,10.8
2022-10-28T03:39:11.775Z,10.7
2022-10-28T03:40:16.319Z,10.7
2022-10-28T03:41:21.016Z,10.8
2022-10-28T03:42:25.207Z,10.9
2022-10-28T03:43:30.060Z,10.7
2022-10-28T03:44:34.673Z,10.7
2022-10-28T03:45:38.977Z,10.8
2022-10-28T03:46:43.589Z,10.8
2022-10-28T03:47:48.855Z,10.7
2022-10-28T03:48:53.348Z,10.6
2022-10-28T03:49:57.920Z,10.6
2022-10-28T03:51:02.372Z,10.7
2022-10-28T03:52:06.988Z,10.7
2022-10-28T03:53:11.571Z,10.7
2022-10-28T03:54:16.890Z,10.7
2022-10-28T03:55:21.291Z,10.7
2022-10-28T03:56:25.719Z,10.8
2022-10-28T03:57:29.855Z,10.7
2022-10-28T03:58:36.209Z,10.8
2022-10-28T03:59:38.679Z,10.6
2022-10-28T04:00:43.226Z,10.8
2022-10-28T04:01:50.345Z,10.7
2022-10-28T04:02:54.855Z,10.7
2022-10-28T04:03:59.259Z,10.5
2022-10-28T04:05:03.959Z,10.6
2022-10-28T04:06:09.035Z,10.7
2022-10-28T04:07:13.372Z,10.7
2022-10-28T04:08:17.907Z,10.7
2022-10-28T04:09:22.536Z,10.7
2022-10-28T04:10:27.035Z,10.5
2022-10-28T04:11:31.709Z,10.6
2022-10-28T04:12:36.732Z,10.6
2022-10-28T04:13:41.631Z,10.6
2022-10-28T04:14:46.474Z,10.6
2022-10-28T04:15:51.324Z,10.6
2022-10-28T04:16:55.989Z,10.8
2022-10-28T04:18:00.492Z,10.7
2022-10-28T04:19:04.936Z,10.7
2022-10-28T04:20:09.480Z,10.8
2022-10-28T04:21:14.357Z,10.7
2022-10-28T04:22:19.299Z,10.7
2022-10-28T04:23:23.835Z,10.7
2022-10-28T04:24:28.762Z,10.6
2022-10-28T04:25:33.452Z,10.7
2022-10-28T04:26:38.507Z,10.6
2022-10-28T04:27:43.293Z,10.6
2022-10-28T04:28:47.911Z,10.6
2022-10-28T04:29:52.768Z,10.7
2022-10-28T04:30:57.144Z,10.8
2022-10-28T04:32:02.188Z,10.7
2022-10-28T04:33:06.832Z,10.8
2022-10-28T04:34:11.381Z,10.8
2022-10-28T04:35:15.875Z,10.8
2022-10-28T04:36:20.563Z,10.7
2022-10-28T04:37:25.231Z,10.6
2022-10-28T04:38:30.112Z,10.6
2022-10-28T04:39:34.666Z,10.6
2022-10-28T04:40:38.800Z,10.6
2022-10-28T04:41:43.203Z,10.6
2022-10-28T04:42:47.643Z,10.6
2022-10-28T04:43:52.339Z,10.5
2022-10-28T04:44:56.917Z,10.5
2022-10-28T04:46:01.575Z,10.6
2022-10-28T04:47:06.088Z,10.5
2022-10-28T04:48:10.714Z,10.4
2022-10-28T04:49:15.159Z,10.4
2022-10-28T04:50:19.716Z,10.4
2022-10-28T04:51:25.320Z,10.5
2022-10-28T04:52:30.943Z,10.5
2022-10-28T04:53:35.523Z,10.5
2022-10-28T04:54:40.228Z,10.5
2022-10-28T04:55:44.911Z,10.5
2022-10-28T04:56:49.312Z,10.5
2022-10-28T04:57:53.888Z,10.6
2022-10-28T04:58:58.519Z,10.5
2022-10-28T05:00:03.259Z,10.5
2022-10-28T05:01:07.926Z,10.6
2022-10-28T05:02:12.493Z,10.5
2022-10-28T05:03:16.835Z,10.6
2022-10-28T05:04:21.043Z,10.6
2022-10-28T05:05:25.823Z,10.5
2022-10-28T05:06:30.147Z,10.5
2022-10-28T05:07:34.367Z,10.6
2022-10-28T05:08:38.779Z,10.6
2022-10-28T05:09:43.037Z,10.5
2022-10-28T05:10:47.664Z,10.5
2022-10-28T05:11:52.155Z,10.6
2022-10-28T05:12:56.904Z,10.6
2022-10-28T05:14:01.456Z,10.6
2022-10-28T05:15:06.045Z,10.7
2022-10-28T05:16:10.741Z,10.6
2022-10-28T05:17:15.387Z,10.6
2022-10-28T05:18:20.033Z,10.7
2022-10-28T05:19:24.306Z,10.6
2022-10-28T05:20:28.820Z,10.6
2022-10-28T05:21:33.067Z,10.7
2022-10-28T05:22:37.799Z,10.6
2022-10-28T05:23:49.839Z,10.6
2022-10-28T05:24:54.398Z,10.6
2022-10-28T05:25:58.715Z,10.7
2022-10-28T05:27:03.188Z,10.6
2022-10-28T05:28:07.788Z,10.8
2022-10-28T05:29:12.451Z,10.8
2022-10-28T05:30:17.031Z,10.5
2022-10-28T05:31:21.575Z,10.5
2022-10-28T05:32:26.593Z,10.5
2022-10-28T05:33:30.851Z,10.5
2022-10-28T05:34:35.419Z,10.5
2022-10-28T05:35:39.900Z,10.4
2022-10-28T05:36:44.169Z,10.5
2022-10-28T05:37:48.787Z,10.5
2022-10-28T05:38:53.283Z,10.4
2022-10-28T05:39:57.990Z,10.5
2022-10-28T05:41:02.507Z,10.5
2022-10-28T05:42:06.943Z,10.5
2022-10-28T05:43:11.236Z,10.6
2022-10-28T05:44:15.655Z,10.6
2022-10-28T05:45:20.021Z,10.6
2022-10-28T05:46:24.343Z,10.7
2022-10-28T05:47:28.500Z,10.6
2022-10-28T05:48:33.672Z,10.6
2022-10-28T05:49:38.323Z,10.7
2022-10-28T05:50:42.954Z,10.6
2022-10-28T05:51:47.488Z,10.6
2022-10-28T05:52:51.952Z,10.5
2022-10-28T05:53:56.108Z,10.7
2022-10-28T05:55:01.222Z,10.7
2022-10-28T05:56:05.841Z,10.8
2022-10-28T05:57:10.529Z,10.6
2022-10-28T05:58:15.012Z,10.7
2022-10-28T05:59:19.676Z,10.6
2022-10-28T06:00:24.315Z,10.6
2022-10-28T06:01:29.021Z,10.6
2022-10-28T06:02:33.623Z,10.7
2022-10-28T06:03:38.387Z,10.6
2022-10-28T06:04:42.775Z,10.6
2022-10-28T06:05:47.538Z,10.7
2022-10-28T06:06:51.951Z,10.7
2022-10-28T06:07:56.471Z,10.6
2022-10-28T06:09:01.329Z,10.6
2022-10-28T06:10:05.743Z,10.7
2022-10-28T06:11:09.027Z,10.6
2022-10-28T06:12:13.456Z,10.6
2022-10-28T06:13:17.949Z,10.8
2022-10-28T06:14:22.644Z,10.6
2022-10-28T06:15:27.432Z,10.7
2022-10-28T06:16:32.140Z,10.8
2022-10-28T06:17:36.560Z,10.9
2022-10-28T06:18:41.219Z,10.8
2022-10-28T06:19:45.815Z,10.8
2022-10-28T06:20:50.221Z,10.8
2022-10-28T06:21:58.594Z,10.7
2022-10-28T06:23:02.930Z,10.7
2022-10-28T06:24:11.267Z,10.7
2022-10-28T06:25:12.400Z,10.8
2022-10-28T06:26:17.293Z,10.8
2022-10-28T06:27:22.635Z,10.8
2022-10-28T06:28:27.126Z,10.9
2022-10-28T06:29:31.689Z,11
2022-10-28T06:30:36.285Z,10.9
2022-10-28T06:31:40.843Z,10.9
2022-10-28T06:32:45.680Z,10.9
2022-10-28T06:33:50.243Z,10.9
2022-10-28T06:34:54.757Z,10.9
2022-10-28T06:35:59.406Z,11
2022-10-28T06:37:03.847Z,10.9
2022-10-28T06:38:09.508Z,10.9
2022-10-28T06:39:13.635Z,11
2022-10-28T06:40:18.401Z,11
2022-10-28T06:41:26.027Z,11
2022-10-28T06:42:30.376Z,10.9
2022-10-28T06:43:35.132Z,11
2022-10-28T06:44:40.030Z,11.2
2022-10-28T06:45:44.318Z,11
2022-10-28T06:46:50.445Z,10.9
2022-10-28T06:47:55.090Z,11
2022-10-28T06:49:00.013Z,11
2022-10-28T06:50:04.329Z,11.1
2022-10-28T06:51:08.674Z,11.2
2022-10-28T06:52:12.866Z,11.2
2022-10-28T06:53:17.520Z,11.2
2022-10-28T06:54:21.998Z,11.2
2022-10-28T06:55:26.323Z,11.3
2022-10-28T06:56:30.792Z,11.2
2022-10-28T06:57:35.259Z,11.2
2022-10-28T06:58:39.480Z,11.2
2022-10-28T06:59:44.192Z,11.2
2022-10-28T07:00:48.565Z,11.3
2022-10-28T07:01:53.127Z,11.4
2022-10-28T07:02:57.595Z,11.4
2022-10-28T07:04:01.991Z,11.4
2022-10-28T07:05:06.660Z,11.4
2022-10-28T07:06:11.274Z,11.5
2022-10-28T07:07:16.299Z,11.3
2022-10-28T07:08:20.877Z,11.3
2022-10-28T07:09:25.429Z,11.4
2022-10-28T07:10:30.251Z,11.4
2022-10-28T07:11:34.768Z,11.4
2022-10-28T07:12:39.308Z,11.5
2022-10-28T07:13:44.359Z,11.4
2022-10-28T07:14:48.422Z,11.5
2022-10-28T07:15:52.964Z,11.5
2022-10-28T07:16:57.224Z,11.4
2022-10-28T07:18:01.810Z,11.5
2022-10-28T07:19:06.809Z,11.5
2022-10-28T07:20:11.070Z,11.6
2022-10-28T07:21:15.921Z,11.5
2022-10-28T07:22:24.764Z,11.5
2022-10-28T07:23:25.329Z,11.5
2022-10-28T07:24:29.858Z,11.5
2022-10-28T07:25:34.693Z,11.7
2022-10-28T07:26:39.122Z,11.7
2022-10-28T07:27:43.847Z,11.8
2022-10-28T07:28:48.363Z,11.9
2022-10-28T07:29:53.085Z,11.8
2022-10-28T07:30:57.510Z,11.9
2022-10-28T07:32:02.101Z,12
2022-10-28T07:33:06.989Z,11.9
2022-10-28T07:34:11.578Z,12
2022-10-28T07:35:16.022Z,11.9
2022-10-28T07:36:22.267Z,11.9
2022-10-28T07:37:27.105Z,11.9
2022-10-28T07:38:31.420Z,12
2022-10-28T07:40:40.402Z,12
2022-10-28T07:41:45.135Z,12.1
2022-10-28T07:42:50.020Z,12
2022-10-28T07:43:54.471Z,12.2
2022-10-28T07:44:59.072Z,12.1
2022-10-28T07:46:03.856Z,12
2022-10-28T07:47:08.255Z,12
2022-10-28T07:48:12.787Z,12
2022-10-28T07:49:17.402Z,12.2
2022-10-28T07:50:22.157Z,12.3
2022-10-28T07:51:26.554Z,12.3
2022-10-28T07:52:31.199Z,12
2022-10-28T07:53:35.954Z,11.9
2022-10-28T07:54:40.341Z,12
2022-10-28T07:55:44.836Z,12
2022-10-28T07:56:56.934Z,12
2022-10-28T07:58:01.343Z,12.1
2022-10-28T07:59:05.781Z,12.1
2022-10-28T08:00:10.388Z,12
2022-10-28T08:01:15.246Z,12.1
2022-10-28T08:02:19.561Z,12
2022-10-28T08:03:31.073Z,12
2022-10-28T08:04:28.915Z,11.9
2022-10-28T08:05:33.386Z,12
2022-10-28T08:06:38.062Z,12
2022-10-28T08:07:42.571Z,11.9
2022-10-28T08:08:47.156Z,12
2022-10-28T08:09:51.942Z,11.8
2022-10-28T08:10:56.617Z,12
2022-10-28T08:12:01.097Z,12
2022-10-28T08:13:05.600Z,11.9
2022-10-28T08:14:10.478Z,12.1
2022-10-28T08:15:15.218Z,12
2022-10-28T08:16:19.398Z,12
2022-10-28T08:17:24.149Z,12.1
2022-10-28T08:18:28.628Z,12.1
2022-10-28T08:19:33.384Z,12.2
2022-10-28T08:20:37.766Z,12.3
2022-10-28T08:21:42.427Z,12.2
2022-10-28T08:22:46.930Z,12.2
2022-10-28T08:23:51.598Z,12.4
2022-10-28T08:24:56.251Z,12.3
2022-10-28T08:26:00.821Z,12.2
2022-10-28T08:27:05.561Z,12.3
2022-10-28T08:28:10.361Z,12.2
2022-10-28T08:29:15.478Z,12.3
2022-10-28T08:30:19.890Z,12.3
2022-10-28T08:31:24.592Z,12.3
2022-10-28T08:32:28.769Z,12.2
2022-10-28T08:33:33.021Z,12.3
2022-10-28T08:34:39.243Z,12.4
2022-10-28T08:35:42.217Z,12.5
2022-10-28T08:36:51.847Z,12.6
2022-10-28T08:37:56.794Z,12.5
2022-10-28T08:39:00.918Z,12.6
2022-10-28T08:40:05.513Z,12.7
2022-10-28T08:41:10.163Z,12.7
2022-10-28T08:42:23.003Z,12.7
2022-10-28T08:43:40.197Z,12.7
2022-10-28T08:44:42.156Z,12.7
2022-10-28T08:45:51.789Z,12.8
2022-10-28T08:47:04.253Z,12.8
2022-10-28T08:48:14.022Z,12.8
2022-10-28T08:49:26.170Z,12.7
2022-10-28T08:50:30.618Z,12.8
2022-10-28T08:51:34.843Z,12.9
2022-10-28T08:52:39.538Z,12.9
2022-10-28T08:53:52.232Z,12.9
2022-10-28T08:54:59.384Z,13
2022-10-28T08:56:07.028Z,13.1
2022-10-28T08:57:17.824Z,13.2
2022-10-28T08:58:22.291Z,13.1
2022-10-28T08:59:26.771Z,13.2
2022-10-28T09:00:36.603Z,13.3
2022-10-28T09:01:41.513Z,13.3
2022-10-28T09:02:49.092Z,13.4
2022-10-28T09:03:58.402Z,13.5
2022-10-28T09:05:03.040Z,13.4
2022-10-28T09:06:15.773Z,13.5
2022-10-28T09:07:20.272Z,13.4
2022-10-28T09:08:24.896Z,13.4
2022-10-28T09:09:29.296Z,13.6
2022-10-28T09:10:33.796Z,13.6
2022-10-28T09:11:43.268Z,13.6
2022-10-28T09:12:47.741Z,13.7
2022-10-28T09:13:59.996Z,13.8
2022-10-28T09:15:10.143Z,13.6
2022-10-28T09:16:15.943Z,13.7
2022-10-28T09:17:24.135Z,13.8
2022-10-28T09:18:28.705Z,13.7
2022-10-28T09:19:41.141Z,13.6
2022-10-28T09:20:51.480Z,13.6
2022-10-28T09:21:56.053Z,13.7
2022-10-28T09:23:05.694Z,13.8
2022-10-28T09:24:09.794Z,13.7
2022-10-28T09:25:19.135Z,13.6
2022-10-28T09:26:26.713Z,13.7
2022-10-28T09:27:33.844Z,13.7
2022-10-28T09:28:41.599Z,13.5
2022-10-28T09:29:54.241Z,13.4
2022-10-28T09:31:06.493Z,13.6
2022-10-28T09:32:21.352Z,13.6
2022-10-28T09:40:37.452Z,13.7
2022-10-28T09:41:48.428Z,14.3
2022-10-28T09:43:07.481Z,14.5
2022-10-28T09:45:08.527Z,14.5
2022-10-28T09:49:04.136Z,14.7
2022-10-28T09:50:12.005Z,14.8
2022-10-28T09:54:41.423Z,14.8
2022-10-28T09:56:56.244Z,14.8
2022-10-28T09:58:22.845Z,14.8
2022-10-28T09:59:38.552Z,15.6
2022-10-28T10:00:51.372Z,15.8
2022-10-28T10:02:02.632Z,15.4
2022-10-28T10:03:22.972Z,15.4
2022-10-28T10:04:35.374Z,15.1
2022-10-28T10:05:56.063Z,15.3
2022-10-28T10:07:13.596Z,15.3
2022-10-28T10:08:32.741Z,15.2
2022-10-28T10:09:46.892Z,15.1
2022-10-28T10:11:00.839Z,15.2
2022-10-28T10:12:17.535Z,15.1
2022-10-28T10:13:45.899Z,15.1
2022-10-28T10:14:56.909Z,15.3
2022-10-28T10:16:15.102Z,15.4
2022-10-28T10:17:50.682Z,15.7
2022-10-28T10:18:56.691Z,15.6
2022-10-28T10:20:01.091Z,15.4
2022-10-28T10:21:13.331Z,15.4
2022-10-28T10:22:18.035Z,15.5
2022-10-28T10:23:30.733Z,15.6
2022-10-28T10:24:34.748Z,15.6
2022-10-28T10:25:38.835Z,15.6
2022-10-28T10:26:43.483Z,15.8
2022-10-28T10:27:48.040Z,15.7
2022-10-28T10:28:57.886Z,15.6
2022-10-28T10:30:02.488Z,15.7
2022-10-28T10:31:06.849Z,15.7
2022-10-28T10:32:11.478Z,15.9
2022-10-28T10:33:18.468Z,15.9
2022-10-28T10:34:22.614Z,15.9
2022-10-28T10:35:26.686Z,15.9
2022-10-28T10:36:31.011Z,15.9
2022-10-28T10:37:36.082Z,15.8
2022-10-28T10:38:43.091Z,15.6
2022-10-28T10:39:52.759Z,15.4
2022-10-28T10:40:59.992Z,15.2
2022-10-28T10:42:04.623Z,15.4
2022-10-28T10:43:16.771Z,15.4
2022-10-28T10:44:21.429Z,15.2
2022-10-28T10:45:25.841Z,15.3
2022-10-28T10:46:30.583Z,15.4
2022-10-28T10:47:35.136Z,15.4
2022-10-28T10:48:39.236Z,15.6
2022-10-28T10:49:43.793Z,15.7
2022-10-28T10:50:48.293Z,15.8
2022-10-28T10:51:52.401Z,15.5
2022-10-28T10:52:59.547Z,15.4
2022-10-28T10:54:03.686Z,15.2
2022-10-28T10:55:08.258Z,15.1
2022-10-28T10:56:13.051Z,15.3
2022-10-28T10:57:17.379Z,15.4
2022-10-28T10:58:22.111Z,15.5
2022-10-28T10:59:26.627Z,15.3
2022-10-28T11:00:31.295Z,15.2
2022-10-28T11:01:38.964Z,15.3
2022-10-28T11:02:43.566Z,15.3
2022-10-28T11:03:48.150Z,15.3
2022-10-28T11:04:55.175Z,15.1
2022-10-28T11:06:24.514Z,14.9
2022-10-28T11:07:04.336Z,14.8
2022-10-28T11:08:08.947Z,15
2022-10-28T11:10:18.172Z,14.9
2022-10-28T11:11:27.899Z,15.1
2022-10-28T11:12:37.999Z,15.3
2022-10-28T11:13:45.113Z,15.4
2022-10-28T11:14:47.256Z,15.1
2022-10-28T11:15:56.936Z,15.2
2022-10-28T11:17:01.441Z,15.3
2022-10-28T11:18:06.105Z,15.6
2022-10-28T11:19:18.757Z,15.7
2022-10-28T11:20:28.454Z,15.6
2022-10-28T11:21:38.137Z,15.8
2022-10-28T11:22:47.739Z,15.7
2022-10-28T11:23:54.916Z,15.7
2022-10-28T11:25:09.736Z,15.6
2022-10-28T11:26:24.592Z,15.5
2022-10-28T11:27:29.133Z,15.5
2022-10-28T11:28:33.611Z,15.7
2022-10-28T11:29:48.532Z,15.7
2022-10-28T11:30:53.167Z,15.9
2022-10-28T11:31:57.557Z,15.6
2022-10-28T11:33:24.628Z,15.6
2022-10-28T11:34:14.856Z,15.6
2022-10-28T11:35:29.751Z,15.8
2022-10-28T11:36:39.490Z,15.7
2022-10-28T11:37:52.213Z,15.6
2022-10-28T11:39:06.907Z,15.7
2022-10-28T11:40:16.582Z,15.8
2022-10-28T11:41:29.493Z,15.9
2022-10-28T11:42:39.055Z,16
2022-10-28T11:43:48.651Z,15.9
2022-10-28T11:44:51.307Z,15.7
2022-10-28T11:46:01.466Z,15.9
2022-10-28T11:47:16.086Z,16.1
2022-10-28T11:48:25.771Z,15.7
2022-10-28T11:49:35.453Z,15.8
2022-10-28T11:50:50.240Z,15.8
2022-10-28T11:51:59.974Z,15.8
2022-10-28T11:53:07.543Z,15.9
2022-10-28T11:54:22.134Z,15.7
2022-10-28T11:55:37.178Z,15.8
2022-10-28T11:56:51.848Z,15.7
2022-10-28T11:58:02.048Z,15.6
2022-10-28T11:59:16.804Z,15.5
2022-10-28T12:00:26.942Z,15.5
2022-10-28T12:01:41.977Z,15.6
2022-10-28T12:02:56.918Z,15.7
2022-10-28T12:04:01.046Z,15.7
2022-10-28T12:05:13.792Z,15.4
2022-10-28T12:06:18.466Z,15.5
2022-10-28T12:07:30.622Z,15.5
2022-10-28T12:08:43.377Z,15.5
2022-10-28T12:09:58.088Z,15.5
2022-10-28T12:11:12.773Z,15.6
2022-10-28T12:12:22.444Z,15.8
2022-10-28T12:13:34.263Z,16
2022-10-28T12:14:48.954Z,16
2022-10-28T12:15:58.553Z,16
2022-10-28T12:17:05.761Z,15.9
2022-10-28T12:18:20.597Z,15.8
2022-10-28T12:19:35.400Z,15.8
2022-10-28T12:20:40.148Z,15.9
2022-10-28T12:21:49.656Z,15.9
2022-10-28T12:23:01.924Z,15.9
2022-10-28T12:24:06.442Z,16
2022-10-28T12:25:16.728Z,16.4
2022-10-28T12:26:23.760Z,16.4
2022-10-28T12:27:30.737Z,16.5
2022-10-28T12:28:35.045Z,16.3
2022-10-28T12:29:44.872Z,16.2
2022-10-28T12:30:49.280Z,16.1
2022-10-28T12:31:54.123Z,16.3
2022-10-28T12:33:03.484Z,16.3
2022-10-28T12:34:07.585Z,16.1
2022-10-28T12:35:14.732Z,16
2022-10-28T12:36:22.581Z,16
2022-10-28T12:37:32.045Z,16.1
2022-10-28T12:38:39.227Z,16.2
2022-10-28T12:39:43.780Z,16.2
2022-10-28T12:40:48.363Z,16.2
2022-10-28T12:42:01.109Z,16.1
2022-10-28T12:43:05.531Z,16
2022-10-28T12:44:14.823Z,15.9
2022-10-28T12:45:21.938Z,15.9
2022-10-28T12:46:26.115Z,16.2
2022-10-28T12:59:19.915Z,16.2
2022-10-28T13:00:37.300Z,16
2022-10-28T13:01:56.048Z,16
2022-10-28T13:03:03.907Z,16
2022-10-28T13:05:16.688Z,16
2022-10-28T13:06:22.926Z,16.2
2022-10-28T13:07:45.422Z,16.4
2022-10-28T13:09:02.550Z,16.5
2022-10-28T13:10:15.295Z,16.5
2022-10-28T13:12:35.294Z,16.5
2022-10-28T13:13:40.004Z,16.3
2022-10-28T13:14:54.678Z,16.1
2022-10-28T13:16:02.029Z,16.3
2022-10-28T13:17:11.567Z,16.4
2022-10-28T13:18:23.750Z,16.4
2022-10-28T13:19:33.581Z,16.3
2022-10-28T13:20:43.022Z,16.1
2022-10-28T13:21:52.730Z,16.4
2022-10-28T13:23:07.421Z,16.4
2022-10-28T13:24:17.330Z,16.3
2022-10-28T13:25:29.973Z,16.3
2022-10-28T13:26:42.867Z,16.3
2022-10-28T13:27:47.291Z,16.1
2022-10-28T13:28:57.081Z,16
2022-10-28T13:30:01.689Z,15.9
2022-10-28T13:31:06.836Z,15.8
2022-10-28T13:32:11.929Z,15.8
2022-10-28T13:33:26.568Z,15.8
2022-10-28T13:34:30.661Z,15.7
2022-10-28T13:35:35.789Z,15.8
2022-10-28T13:36:40.441Z,16
2022-10-28T13:37:45.040Z,16
2022-10-28T13:38:49.700Z,16
2022-10-28T13:39:56.850Z,15.9
2022-10-28T13:41:01.505Z,15.9
2022-10-28T13:42:06.073Z,15.9
2022-10-28T13:43:13.180Z,15.7
2022-10-28T13:44:20.173Z,15.6
2022-10-28T13:45:24.370Z,15.8
2022-10-28T13:46:39.028Z,15.8
2022-10-28T13:47:53.948Z,15.7
2022-10-28T13:49:03.515Z,15.8
2022-10-28T13:50:18.315Z,15.8
2022-10-28T13:51:22.400Z,15.7
2022-10-28T13:52:26.540Z,15.6
2022-10-28T13:53:30.800Z,15.6
2022-10-28T13:54:43.296Z,15.6
2022-10-28T13:55:47.367Z,15.6
2022-10-28T13:56:51.536Z,15.6
2022-10-28T13:57:56.580Z,15.6
2022-10-28T13:59:00.799Z,15.5
2022-10-28T14:00:13.283Z,15.5
2022-10-28T14:01:17.772Z,15.7
2022-10-28T14:02:35.426Z,15.6
2022-10-28T14:03:39.559Z,15.6
2022-10-28T14:04:44.029Z,15.6
2022-10-28T14:05:56.457Z,15.6
2022-10-28T14:07:00.874Z,15.7
2022-10-28T14:08:13.082Z,15.7
2022-10-28T14:09:25.367Z,15.6
2022-10-28T14:10:29.998Z,15.5
2022-10-28T14:11:34.512Z,15.3
2022-10-28T14:12:39.041Z,15.5
2022-10-28T14:13:43.757Z,15.4
2022-10-28T14:14:48.326Z,15.3
2022-10-28T14:15:58.229Z,15.3
2022-10-28T14:17:12.857Z,15.2
2022-10-28T14:18:42.027Z,15.2
2022-10-28T14:19:27.608Z,15.1
2022-10-28T14:20:31.950Z,15.1
2022-10-28T14:21:36.673Z,15.1
2022-10-28T14:22:43.836Z,15.1
2022-10-28T14:23:48.347Z,15.2
2022-10-28T14:25:03.130Z,15.1
2022-10-28T14:26:07.642Z,15
2022-10-28T14:27:11.926Z,15
2022-10-28T14:28:16.822Z,14.9
2022-10-28T14:29:29.154Z,14.9
2022-10-28T14:30:45.692Z,15.1
2022-10-28T14:31:58.646Z,14.9
2022-10-28T14:33:02.881Z,14.9
2022-10-28T14:34:12.435Z,14.9
2022-10-28T14:35:16.557Z,14.9
2022-10-28T14:36:21.238Z,14.7
2022-10-28T14:37:30.991Z,14.8
2022-10-28T14:38:41.510Z,14.7
2022-10-28T14:39:54.289Z,14.8
2022-10-28T14:41:03.921Z,14.9
2022-10-28T14:42:18.776Z,14.8
2022-10-28T14:43:31.374Z,14.7
2022-10-28T14:44:44.133Z,14.7
2022-10-28T14:45:58.942Z,14.6
2022-10-28T14:47:08.670Z,14.6
2022-10-28T14:48:18.493Z,14.6
2022-10-28T14:49:22.840Z,14.5
2022-10-28T14:50:32.553Z,14.6
2022-10-28T14:51:39.701Z,14.5
2022-10-28T14:52:44.512Z,14.6
2022-10-28T14:53:48.981Z,14.5
2022-10-28T14:54:56.105Z,14.6
2022-10-28T14:56:00.585Z,14.6
2022-10-28T14:57:05.264Z,14.4
2022-10-28T14:58:09.808Z,14.4
2022-10-28T14:59:22.566Z,14.6
2022-10-28T15:00:26.673Z,14.4
2022-10-28T15:01:31.204Z,14.3
2022-10-28T15:02:38.578Z,14.4
2022-10-28T15:03:43.045Z,14.4
2022-10-28T15:04:52.593Z,14.4
2022-10-28T15:06:07.605Z,14.2
2022-10-28T15:07:22.208Z,14.3
2022-10-28T15:08:26.842Z,14.1
2022-10-28T15:09:31.551Z,14
2022-10-28T15:10:37.399Z,14
2022-10-28T15:11:41.084Z,14.1
2022-10-28T15:12:45.606Z,14.1
2022-10-28T15:13:49.662Z,14.1
2022-10-28T15:14:53.751Z,13.9
2022-10-28T15:15:58.320Z,13.9
2022-10-28T15:17:02.443Z,14
2022-10-28T15:18:12.131Z,14
2022-10-28T15:19:24.964Z,13.9
2022-10-28T15:20:29.532Z,13.8
2022-10-28T15:21:33.727Z,13.8
2022-10-28T15:22:38.232Z,13.8
2022-10-28T15:23:42.720Z,13.9
2022-10-28T15:24:47.390Z,13.7
2022-10-28T15:25:56.955Z,13.7